Terminal Aerodrome Forecast
Issued by NWS

Home | Current Version | Previous Version | Text Only | Print | Product List | Glossary On
Versions: 1 2 3 4 5 6 7 8 9 10 11 12 13 14 15
087
FTUS41 KBTV 192338
TAFSLK
TAF
KSLK 192338Z 2000/2024 05006KT P6SM FEW200
     FM200500 00000KT 3SM BR BKN040
     FM200600 00000KT 1/2SM FG OVC008
     FM201200 04005KT 2SM BR SCT025
     FM201400 04007KT P6SM SCT045=

USA.gov is the U.S. government's official web portal to all federal, state and local government web resources and services.